createdAt,value
2023-06-12T06:13:22.983Z,21.30
2023-06-12T06:16:06.785Z,21.40
2023-06-12T06:18:43.408Z,21.50
2023-06-12T06:21:18.201Z,21.40
2023-06-12T06:23:52.265Z,21.60
2023-06-12T06:26:25.917Z,21.60
2023-06-12T06:29:14.967Z,21.80
2023-06-12T06:32:01.976Z,22.00
2023-06-12T06:34:37.619Z,22.20
2023-06-12T06:37:13.220Z,22.50
2023-06-12T06:39:56.179Z,22.70
2023-06-12T06:42:34.800Z,23.00
2023-06-12T18:49:58.972Z,23.20
2023-06-12T18:52:32.818Z,23.00
2023-06-12T18:55:06.176Z,22.80
2023-06-12T18:57:38.995Z,22.70
2023-06-12T19:00:15.164Z,22.60
2023-06-12T19:02:49.679Z,22.60
2023-06-12T19:05:22.829Z,22.60
2023-06-12T19:07:59.554Z,22.40
2023-06-12T19:13:07.797Z,22.30
2023-06-12T19:15:45.714Z,22.30
2023-06-12T19:18:18.372Z,22.10
2023-06-12T19:20:51.557Z,21.80
2023-06-12T19:23:27.502Z,21.70
2023-06-12T19:26:03.816Z,21.50
2023-06-12T19:28:36.641Z,21.40
2023-06-12T19:31:16.937Z,21.20
2023-06-12T19:33:55.125Z,21.00
2023-06-12T19:36:30.715Z,20.70
2023-06-12T19:39:07.335Z,20.60
2023-06-12T19:41:41.553Z,20.30
2023-06-12T19:44:19.432Z,20.10
2023-06-12T19:46:57.045Z,20.00
2023-06-12T19:49:36.553Z,19.80
2023-06-12T19:52:13.600Z,19.60
2023-06-12T19:54:48.037Z,19.50
2023-06-12T19:57:29.134Z,19.30
2023-06-12T20:00:01.838Z,19.20
2023-06-12T20:02:45.886Z,19.00
2023-06-12T20:05:20.909Z,18.80
2023-06-12T20:07:54.328Z,18.50
2023-06-12T20:10:34.992Z,18.40
2023-06-12T20:13:08.700Z,18.30
2023-06-12T20:15:44.356Z,18.00
2023-06-12T20:18:21.680Z,17.90
2023-06-12T20:20:55.403Z,17.70
2023-06-12T20:23:30.236Z,17.60
2023-06-12T20:26:02.586Z,17.50
